Terminal Aerodrome Forecast
Issued by NWS Mt. Holly, NJ

Home | Current Version | Previous Version | Text Only | Print | Product List | Glossary On
Versions: 1 2 3 4 5 6 7 8 9 10 11 12 13 14 15 16 17
000
FTUS41 KPHI 302025 AAA
TAFILG
TAF AMD
KILG 302025Z 3020/3118 21010G18KT P6SM BKN040
      TEMPO 3020/3021 27015G30KT 1SM +TSRA BR OVC010CB
     FM302100 22008KT P6SM SCT025 BKN045
      TEMPO 3021/3023 4SM -SHRA BR BKN025 OVC045
     FM302300 24008KT P6SM SCT045
     FM310500 31008KT P6SM SKC=

USA.gov is the U.S. government's official web portal to all federal, state and local government web resources and services.